Time;durP1;ratioP1;P1;durP2;ratioP2;P2;SDS_P1;SDS_P2;PMS_P1;PMS_P2;Temp;Humidity;BMP_temperature;BMP_pressure;BME280_temperature;BME280_humidity;BME280_pressure;Samples;Min_cycle;Max_cycle;Signal;HPM_P1;HPM_P2
2023/11/24 00:00:39;;;;;;;;;;;8.60;99.90;;;;;;4991740;28;19913;-89
2023/11/24 00:03:05;;;;;;;;;;;8.50;99.90;;;;;;4990319;28;19913;-88
2023/11/24 00:05:30;;;;;;;;;;;8.50;99.90;;;;;;5010000;28;19913;-88
2023/11/24 00:07:56;;;;;;;;;;;8.50;99.90;;;;;;4992232;28;19909;-90
2023/11/24 00:10:28;;;;;;;;;;;8.50;99.90;;;;;;5007738;28;19909;-90
2023/11/24 00:12:54;;;;;;;;;;;8.40;99.90;;;;;;4991694;28;19992;-89
2023/11/24 00:15:19;;;;;;;;;;;8.40;99.90;;;;;;4993241;28;20483;-89
2023/11/24 00:17:45;;;;;;;;;;;8.40;99.90;;;;;;5008936;28;19909;-89
2023/11/24 00:20:11;;;;;;;;;;;8.30;99.90;;;;;;5010247;28;19909;-88
2023/11/24 00:22:39;;;;;;;;;;;8.30;99.90;;;;;;4996544;28;19917;-91
2023/11/24 00:25:06;;;;;;;;;;;8.30;99.90;;;;;;4985740;28;20409;-90
2023/11/24 00:27:32;;;;;;;;;;;8.30;99.90;;;;;;5010369;28;19906;-89
2023/11/24 00:29:58;;;;;;;;;;;8.40;99.90;;;;;;4992406;28;20615;-89
2023/11/24 00:32:23;;;;;;;;;;;8.40;99.90;;;;;;4997691;28;19906;-90
2023/11/24 00:34:49;;;;;;;;;;;8.40;99.90;;;;;;5008995;28;19996;-90
2023/11/24 00:37:14;;;;;;;;;;;8.30;99.90;;;;;;5011754;28;20500;-90
2023/11/24 00:39:40;;;;;;;;;;;8.40;99.90;;;;;;5003422;28;20016;-89
2023/11/24 00:42:08;;;;;;;;;;;8.40;99.90;;;;;;5002566;28;19917;-89
2023/11/24 00:44:35;;;;;;;;;;;8.40;99.90;;;;;;5006452;28;19909;-89
2023/11/24 00:47:10;;;;;;;;;;;8.40;99.90;;;;;;4990529;28;20351;-89
2023/11/24 00:49:39;;;;;;;;;;;8.40;99.90;;;;;;5002908;28;19992;-89
2023/11/24 00:52:04;;;;;;;;;;;8.30;99.90;;;;;;4991678;28;19909;-88
2023/11/24 00:54:31;;;;;;;;;;;8.30;99.90;;;;;;5000323;28;20008;-88
2023/11/24 00:56:56;;;;;;;;;;;8.20;99.90;;;;;;4989741;28;20008;-90
2023/11/24 00:59:22;;;;;;;;;;;8.20;99.90;;;;;;5008806;28;20000;-91
2023/11/24 01:01:47;;;;;;;;;;;8.20;99.90;;;;;;5006452;28;19913;-87
2023/11/24 01:04:13;;;;;;;;;;;8.20;99.90;;;;;;4994915;28;20340;-90
2023/11/24 01:06:39;;;;;;;;;;;8.10;99.90;;;;;;4999328;28;19909;-90
2023/11/24 01:09:05;;;;;;;;;;;8.10;99.90;;;;;;5014020;28;19909;-90
2023/11/24 01:11:33;;;;;;;;;;;8.10;99.90;;;;;;4995296;28;20004;-90
2023/11/24 01:13:58;;;;;;;;;;;8.10;99.90;;;;;;5000225;28;20171;-90
2023/11/24 01:16:24;;;;;;;;;;;8.10;99.90;;;;;;5014811;28;20365;-90
2023/11/24 01:18:49;;;;;;;;;;;8.00;99.90;;;;;;5013432;28;19913;-90
2023/11/24 01:21:17;;;;;;;;;;;8.10;99.90;;;;;;4998525;28;20067;-90
2023/11/24 01:23:43;;;;;;;;;;;7.90;99.90;;;;;;4996205;28;20464;-91
2023/11/24 01:26:11;;;;;;;;;;;8.00;99.90;;;;;;4997626;28;19917;-89
2023/11/24 01:28:38;;;;;;;;;;;7.90;99.90;;;;;;5012639;28;20392;-90
2023/11/24 01:31:04;;;;;;;;;;;7.90;99.90;;;;;;4996272;28;19909;-90
2023/11/24 01:33:30;;;;;;;;;;;7.90;99.90;;;;;;5009787;28;19920;-89
2023/11/24 01:35:56;;;;;;;;;;;7.90;99.90;;;;;;4999428;28;19913;-89
2023/11/24 01:38:23;;;;;;;;;;;7.80;99.90;;;;;;5014920;28;19909;-86
2023/11/24 01:40:51;;;;;;;;;;;7.80;99.90;;;;;;5013652;28;19991;-88
2023/11/24 01:43:17;;;;;;;;;;;7.80;99.90;;;;;;5008514;28;20016;-87
2023/11/24 01:45:44;;;;;;;;;;;7.80;99.90;;;;;;4997036;28;20090;-87
2023/11/24 01:48:10;;;;;;;;;;;7.70;99.90;;;;;;4990516;28;19920;-89
2023/11/24 01:50:37;;;;;;;;;;;7.70;99.90;;;;;;5009957;28;19909;-88
2023/11/24 01:53:02;;;;;;;;;;;7.70;99.90;;;;;;4997715;28;20506;-89
2023/11/24 01:55:28;;;;;;;;;;;7.70;99.90;;;;;;5012993;28;20015;-90
2023/11/24 01:57:53;;;;;;;;;;;7.60;99.90;;;;;;4994684;28;19906;-90
2023/11/24 02:00:19;;;;;;;;;;;7.80;99.90;;;;;;4994678;28;19909;-89
2023/11/24 02:02:45;;;;;;;;;;;7.60;99.90;;;;;;4993545;28;20538;-87
2023/11/24 02:05:14;;;;;;;;;;;7.60;99.90;;;;;;4994961;28;19918;-89
2023/11/24 02:07:41;;;;;;;;;;;7.70;99.90;;;;;;5014735;28;19913;-88
2023/11/24 02:10:09;;;;;;;;;;;7.70;99.90;;;;;;5012903;28;20000;-88
2023/11/24 02:12:37;;;;;;;;;;;7.60;99.90;;;;;;5008892;28;20399;-89
2023/11/24 02:15:03;;;;;;;;;;;7.60;99.90;;;;;;4996505;28;20431;-88
2023/11/24 02:17:28;;;;;;;;;;;7.60;99.90;;;;;;5007429;28;19913;-90
2023/11/24 02:19:57;;;;;;;;;;;7.60;99.90;;;;;;5011101;28;19905;-87
2023/11/24 02:22:25;;;;;;;;;;;7.60;99.90;;;;;;5014699;28;20446;-88
2023/11/24 02:24:51;;;;;;;;;;;7.60;99.90;;;;;;5008388;28;19918;-90
2023/11/24 02:27:20;;;;;;;;;;;7.70;99.90;;;;;;5006870;28;19913;-86
2023/11/24 02:29:48;;;;;;;;;;;7.60;99.90;;;;;;4994217;28;20004;-88
2023/11/24 02:32:18;;;;;;;;;;;7.60;99.90;;;;;;4991597;28;19909;-88
2023/11/24 02:34:44;;;;;;;;;;;7.60;99.90;;;;;;5010285;28;19909;-89
2023/11/24 02:37:09;;;;;;;;;;;7.60;99.90;;;;;;4992424;28;19917;-88
2023/11/24 02:39:35;;;;;;;;;;;7.60;99.90;;;;;;4990599;28;20488;-89
2023/11/24 02:42:00;;;;;;;;;;;7.60;99.90;;;;;;5010961;28;19917;-89
2023/11/24 02:44:26;;;;;;;;;;;7.60;99.90;;;;;;4991043;28;19944;-89
2023/11/24 02:46:54;;;;;;;;;;;7.70;99.90;;;;;;4993505;28;19999;-89
2023/11/24 02:49:21;;;;;;;;;;;7.70;99.90;;;;;;5008940;28;20434;-89
2023/11/24 02:51:47;;;;;;;;;;;7.60;99.90;;;;;;4992948;28;19952;-89
2023/11/24 02:54:13;;;;;;;;;;;7.60;99.90;;;;;;4993219;28;19995;-89
2023/11/24 02:56:41;;;;;;;;;;;7.60;99.90;;;;;;5004659;28;19910;-86
2023/11/24 02:59:11;;;;;;;;;;;7.50;99.90;;;;;;4994787;28;19921;-89
2023/11/24 03:01:37;;;;;;;;;;;7.60;99.90;;;;;;4993299;28;20363;-89
2023/11/24 03:04:04;;;;;;;;;;;7.70;99.90;;;;;;5007861;28;19992;-86
2023/11/24 03:06:30;;;;;;;;;;;7.60;99.90;;;;;;5006851;28;19913;-89
2023/11/24 03:08:57;;;;;;;;;;;7.60;99.90;;;;;;4994455;28;19916;-87
2023/11/24 03:11:25;;;;;;;;;;;7.50;99.90;;;;;;4995098;28;19910;-89
2023/11/24 03:13:50;;;;;;;;;;;7.60;99.90;;;;;;4993891;28;19909;-88
2023/11/24 03:16:16;;;;;;;;;;;7.60;99.90;;;;;;4993692;28;19917;-88
2023/11/24 03:18:41;;;;;;;;;;;7.50;99.90;;;;;;4991714;28;20278;-89
2023/11/24 03:21:07;;;;;;;;;;;7.50;99.90;;;;;;4991709;28;19988;-87
2023/11/24 03:23:33;;;;;;;;;;;7.50;99.90;;;;;;5009249;28;19920;-90
2023/11/24 03:26:02;;;;;;;;;;;7.40;99.90;;;;;;5013045;28;19916;-89
2023/11/24 03:28:30;;;;;;;;;;;7.60;99.90;;;;;;4987012;28;19916;-87
2023/11/24 03:30:56;;;;;;;;;;;7.70;99.90;;;;;;5007770;28;19964;-89
2023/11/24 03:33:21;;;;;;;;;;;7.50;99.90;;;;;;4993785;28;19922;-88
2023/11/24 03:35:47;;;;;;;;;;;7.50;99.90;;;;;;5006266;28;19910;-88
2023/11/24 03:38:13;;;;;;;;;;;7.30;99.90;;;;;;4993097;28;19909;-87
2023/11/24 03:40:39;;;;;;;;;;;7.20;99.90;;;;;;5009399;28;19992;-90
2023/11/24 03:43:04;;;;;;;;;;;7.30;99.90;;;;;;4993758;28;20013;-89
2023/11/24 03:45:30;;;;;;;;;;;7.20;99.90;;;;;;4996011;28;19916;-89
2023/11/24 03:47:55;;;;;;;;;;;7.20;99.90;;;;;;4992873;28;20323;-89
2023/11/24 03:50:21;;;;;;;;;;;7.30;99.90;;;;;;5002907;28;19913;-87
2023/11/24 03:52:46;;;;;;;;;;;7.40;99.90;;;;;;4989946;28;19917;-90
2023/11/24 03:55:12;;;;;;;;;;;7.30;99.90;;;;;;5007424;28;19909;-89
2023/11/24 03:57:38;;;;;;;;;;;7.30;99.90;;;;;;5010525;28;20432;-87
2023/11/24 04:00:05;;;;;;;;;;;7.30;99.90;;;;;;4988548;28;19917;-88
2023/11/24 04:02:30;;;;;;;;;;;7.30;99.90;;;;;;5005492;28;19925;-88
2023/11/24 04:04:58;;;;;;;;;;;7.30;99.90;;;;;;4986401;28;19909;-86
2023/11/24 04:07:25;;;;;;;;;;;7.40;99.90;;;;;;4996016;28;19948;-87
2023/11/24 04:09:51;;;;;;;;;;;7.40;99.90;;;;;;5009643;28;19963;-89
2023/11/24 04:12:17;;;;;;;;;;;7.50;99.90;;;;;;5008282;28;19944;-87
2023/11/24 04:14:45;;;;;;;;;;;7.40;99.90;;;;;;5007535;28;19945;-87
2023/11/24 04:17:13;;;;;;;;;;;7.50;99.90;;;;;;4989519;28;19953;-90
2023/11/24 04:19:39;;;;;;;;;;;7.60;99.90;;;;;;5011042;28;19905;-89
2023/11/24 04:22:04;;;;;;;;;;;7.50;99.90;;;;;;4989562;28;19914;-88
2023/11/24 04:24:30;;;;;;;;;;;7.60;99.90;;;;;;4992221;28;19910;-89
2023/11/24 04:26:55;;;;;;;;;;;7.50;99.90;;;;;;4992576;28;20299;-89
2023/11/24 04:29:24;;;;;;;;;;;7.40;99.90;;;;;;4992224;28;19917;-89
2023/11/24 04:31:49;;;;;;;;;;;7.20;99.90;;;;;;4992724;28;19928;-88
2023/11/24 04:34:17;;;;;;;;;;;7.20;99.90;;;;;;5000780;28;19909;-89
2023/11/24 04:36:45;;;;;;;;;;;7.20;99.90;;;;;;4992544;28;19913;-90
2023/11/24 04:39:11;;;;;;;;;;;7.20;99.90;;;;;;4992754;28;20403;-90
2023/11/24 04:41:37;;;;;;;;;;;7.10;99.90;;;;;;5011647;28;19913;-90
2023/11/24 04:44:02;;;;;;;;;;;7.10;99.90;;;;;;4993109;28;19913;-90
2023/11/24 04:46:28;;;;;;;;;;;7.00;99.90;;;;;;4985495;28;19909;-89
2023/11/24 04:48:53;;;;;;;;;;;6.90;99.90;;;;;;4994151;28;19913;-89
2023/11/24 04:51:19;;;;;;;;;;;7.00;99.90;;;;;;4990471;28;19912;-87
2023/11/24 04:53:46;;;;;;;;;;;7.00;99.90;;;;;;4990011;28;20399;-89
2023/11/24 04:56:12;;;;;;;;;;;7.00;99.90;;;;;;4993302;28;19921;-88
2023/11/24 04:58:38;;;;;;;;;;;7.00;99.90;;;;;;4992661;28;19917;-91
2023/11/24 05:01:04;;;;;;;;;;;7.00;99.90;;;;;;4989483;28;19909;-89
2023/11/24 05:03:31;;;;;;;;;;;6.90;99.90;;;;;;5002330;28;20366;-90
2023/11/24 05:05:59;;;;;;;;;;;6.90;99.90;;;;;;5000727;28;19944;-87
2023/11/24 05:08:27;;;;;;;;;;;6.90;99.90;;;;;;5010155;28;19920;-89
2023/11/24 05:10:55;;;;;;;;;;;6.90;99.90;;;;;;4992948;28;20312;-89
2023/11/24 05:13:21;;;;;;;;;;;6.90;99.90;;;;;;5005778;28;20105;-89
2023/11/24 05:15:46;;;;;;;;;;;6.90;99.90;;;;;;5004126;28;20377;-90
2023/11/24 05:18:14;;;;;;;;;;;6.90;99.90;;;;;;4987246;28;19957;-86
2023/11/24 05:20:39;;;;;;;;;;;6.80;99.90;;;;;;4989646;28;19921;-90
2023/11/24 05:23:06;;;;;;;;;;;6.80;99.90;;;;;;4988037;28;19960;-88
2023/11/24 05:25:32;;;;;;;;;;;6.80;99.90;;;;;;5002943;28;19909;-88
2023/11/24 05:27:58;;;;;;;;;;;6.80;99.90;;;;;;4987984;28;20008;-90
2023/11/24 05:30:26;;;;;;;;;;;6.80;99.90;;;;;;4990815;28;19936;-87
2023/11/24 05:32:54;;;;;;;;;;;6.90;99.90;;;;;;4992068;28;19917;-89
2023/11/24 05:35:19;;;;;;;;;;;6.80;99.90;;;;;;5006483;28;19909;-89
2023/11/24 05:37:45;;;;;;;;;;;6.80;99.90;;;;;;5008880;28;20173;-90
2023/11/24 05:40:12;;;;;;;;;;;6.80;99.90;;;;;;5008125;28;19917;-88
2023/11/24 05:42:40;;;;;;;;;;;6.70;99.90;;;;;;5005745;28;20020;-90
2023/11/24 05:45:05;;;;;;;;;;;6.80;99.90;;;;;;4990431;28;20435;-88
2023/11/24 05:47:34;;;;;;;;;;;6.70;99.90;;;;;;4992229;28;19919;-90
2023/11/24 05:50:00;;;;;;;;;;;6.70;99.90;;;;;;5009747;28;19913;-90
2023/11/24 05:52:25;;;;;;;;;;;6.60;99.90;;;;;;4991178;28;19963;-89
2023/11/24 05:54:53;;;;;;;;;;;6.60;99.90;;;;;;5011105;28;20060;-89
2023/11/24 05:57:18;;;;;;;;;;;6.60;99.90;;;;;;4994468;28;19917;-89
2023/11/24 05:59:46;;;;;;;;;;;6.60;99.90;;;;;;5009609;28;19910;-89
2023/11/24 06:02:12;;;;;;;;;;;6.40;99.90;;;;;;5008639;28;20004;-88
2023/11/24 06:04:37;;;;;;;;;;;6.40;99.90;;;;;;5010496;28;19996;-87
2023/11/24 06:07:04;;;;;;;;;;;6.40;99.90;;;;;;5009508;28;19910;-89
2023/11/24 06:09:32;;;;;;;;;;;6.40;99.90;;;;;;5003240;28;20017;-89
2023/11/24 06:11:58;;;;;;;;;;;6.50;99.90;;;;;;4995444;28;19909;-88
2023/11/24 06:14:24;;;;;;;;;;;6.60;99.90;;;;;;5012474;28;19916;-86
2023/11/24 06:16:49;;;;;;;;;;;6.50;99.90;;;;;;5009786;28;20276;-89
2023/11/24 06:19:15;;;;;;;;;;;6.40;99.90;;;;;;4990614;28;20067;-88
2023/11/24 06:21:40;;;;;;;;;;;6.40;99.90;;;;;;4993114;28;19913;-89
2023/11/24 06:24:06;;;;;;;;;;;6.40;99.90;;;;;;5012122;28;20388;-91
2023/11/24 06:26:33;;;;;;;;;;;6.30;99.90;;;;;;5008443;28;19913;-89
2023/11/24 06:28:58;;;;;;;;;;;6.30;99.90;;;;;;4992886;28;20344;-90
2023/11/24 06:31:24;;;;;;;;;;;6.40;99.90;;;;;;5002986;28;19909;-89
2023/11/24 06:33:49;;;;;;;;;;;6.50;99.90;;;;;;5006339;28;19956;-89
2023/11/24 06:36:15;;;;;;;;;;;6.60;99.90;;;;;;4994835;28;19924;-90
2023/11/24 06:38:43;;;;;;;;;;;6.50;99.90;;;;;;4991573;28;19913;-89
2023/11/24 06:41:08;;;;;;;;;;;6.50;99.90;;;;;;4993048;28;19925;-90
2023/11/24 06:43:34;;;;;;;;;;;6.50;99.90;;;;;;5007947;28;20011;-88
2023/11/24 06:46:05;;;;;;;;;;;6.60;99.90;;;;;;5008356;28;19988;-89
2023/11/24 06:48:31;;;;;;;;;;;6.50;99.90;;;;;;5007321;28;19917;-87
2023/11/24 06:50:58;;;;;;;;;;;6.50;99.90;;;;;;4991701;28;19913;-88
2023/11/24 06:53:23;;;;;;;;;;;6.60;99.90;;;;;;4993450;28;19964;-90
2023/11/24 06:55:49;;;;;;;;;;;6.50;99.90;;;;;;5010463;28;19909;-88
2023/11/24 06:58:17;;;;;;;;;;;6.50;99.90;;;;;;5005019;28;20419;-87
2023/11/24 07:00:43;;;;;;;;;;;6.60;99.90;;;;;;5006687;28;19909;-89
2023/11/24 07:03:08;;;;;;;;;;;6.50;99.90;;;;;;4989547;28;19975;-89
2023/11/24 07:05:35;;;;;;;;;;;6.60;99.90;;;;;;4993389;28;19917;-88
2023/11/24 07:08:03;;;;;;;;;;;6.50;99.90;;;;;;5006248;28;19909;-87
2023/11/24 07:10:29;;;;;;;;;;;6.50;99.90;;;;;;4990803;28;19917;-89
2023/11/24 07:12:59;;;;;;;;;;;6.50;99.90;;;;;;4992738;28;20473;-89
2023/11/24 07:15:24;;;;;;;;;;;6.50;99.90;;;;;;4987061;28;19910;-89
2023/11/24 07:17:50;;;;;;;;;;;6.60;99.90;;;;;;5006365;28;19909;-89
2023/11/24 07:20:16;;;;;;;;;;;6.50;99.90;;;;;;4989405;28;20573;-89
2023/11/24 07:22:42;;;;;;;;;;;6.50;99.90;;;;;;5005118;28;20301;-89
2023/11/24 07:25:08;;;;;;;;;;;6.60;99.90;;;;;;5005472;28;19909;-89
2023/11/24 07:27:34;;;;;;;;;;;6.50;99.90;;;;;;5007979;28;19916;-89
2023/11/24 07:29:59;;;;;;;;;;;6.60;99.90;;;;;;5004823;28;19956;-89
2023/11/24 07:32:29;;;;;;;;;;;6.50;99.90;;;;;;4994562;28;19948;-90
2023/11/24 07:34:55;;;;;;;;;;;6.50;99.90;;;;;;5011032;28;19993;-90
2023/11/24 07:37:23;;;;;;;;;;;6.70;99.90;;;;;;4993206;28;19941;-87
2023/11/24 07:39:49;;;;;;;;;;;6.50;99.90;;;;;;5005785;28;20376;-88
2023/11/24 07:42:14;;;;;;;;;;;6.60;99.90;;;;;;4999344;28;19960;-89
2023/11/24 07:44:42;;;;;;;;;;;6.50;99.90;;;;;;4993115;28;20000;-89
2023/11/24 07:47:08;;;;;;;;;;;6.50;99.90;;;;;;4987827;28;19913;-89
2023/11/24 07:49:34;;;;;;;;;;;6.60;99.90;;;;;;5005728;28;19920;-86
2023/11/24 07:52:02;;;;;;;;;;;6.60;99.90;;;;;;5005834;28;20288;-91
2023/11/24 07:54:28;;;;;;;;;;;6.70;99.90;;;;;;5004473;28;19986;-90
2023/11/24 07:56:56;;;;;;;;;;;6.80;99.90;;;;;;5009208;28;19919;-90
2023/11/24 07:59:23;;;;;;;;;;;6.70;99.90;;;;;;4992408;28;19913;-89
2023/11/24 08:01:49;;;;;;;;;;;6.70;99.90;;;;;;4991580;28;19928;-89
2023/11/24 08:04:14;;;;;;;;;;;6.70;99.90;;;;;;4993975;28;19909;-88
2023/11/24 08:06:42;;;;;;;;;;;6.70;99.90;;;;;;4991375;28;19910;-89
2023/11/24 08:09:08;;;;;;;;;;;6.80;99.90;;;;;;4975777;28;19913;-89
2023/11/24 08:11:36;;;;;;;;;;;6.70;99.90;;;;;;4989218;28;20546;-89
2023/11/24 08:14:04;;;;;;;;;;;6.80;99.90;;;;;;4988805;28;20404;-90
2023/11/24 08:16:29;;;;;;;;;;;6.80;99.90;;;;;;4989236;28;19937;-89
2023/11/24 08:18:55;;;;;;;;;;;6.80;99.90;;;;;;5009971;28;19945;-91
2023/11/24 08:21:20;;;;;;;;;;;6.80;99.90;;;;;;5006844;28;20379;-91
2023/11/24 08:23:48;;;;;;;;;;;6.60;99.90;;;;;;4992081;28;19925;-89
2023/11/24 08:26:17;;;;;;;;;;;6.70;99.90;;;;;;4972158;28;19925;-87
2023/11/24 08:28:44;;;;;;;;;;;6.60;99.90;;;;;;5012871;28;19967;-91
2023/11/24 08:31:19;;;;;;;;;;;6.60;99.90;;;;;;4990160;28;20060;-90
2023/11/24 08:33:45;;;;;;;;;;;6.70;99.90;;;;;;5007174;28;19917;-89
2023/11/24 08:36:16;;;;;;;;;;;6.70;99.90;;;;;;4986986;28;19959;-90
2023/11/24 08:38:42;;;;;;;;;;;6.60;99.90;;;;;;4991477;28;19984;-89
2023/11/24 08:41:13;;;;;;;;;;;6.60;99.90;;;;;;5005045;28;20340;-90
2023/11/24 08:43:39;;;;;;;;;;;6.70;99.90;;;;;;5007896;28;19922;-89
2023/11/24 08:46:04;;;;;;;;;;;6.80;99.90;;;;;;5007736;28;19917;-90
2023/11/24 08:48:33;;;;;;;;;;;6.60;99.90;;;;;;4991576;28;20328;-89
2023/11/24 08:50:58;;;;;;;;;;;6.60;99.90;;;;;;5004567;28;19909;-88
2023/11/24 08:53:25;;;;;;;;;;;6.60;99.90;;;;;;5006144;28;19931;-87
2023/11/24 08:55:51;;;;;;;;;;;6.60;99.90;;;;;;5006860;28;19914;-91
2023/11/24 08:58:16;;;;;;;;;;;6.60;99.90;;;;;;4988105;28;19913;-90
2023/11/24 09:00:45;;;;;;;;;;;6.50;99.90;;;;;;4991672;28;19973;-86
2023/11/24 09:03:12;;;;;;;;;;;6.60;99.90;;;;;;4991085;28;19917;-89
2023/11/24 09:05:42;;;;;;;;;;;6.70;99.90;;;;;;5004388;28;20020;-89
2023/11/24 09:08:08;;;;;;;;;;;6.80;99.90;;;;;;4990227;28;19921;-89
2023/11/24 09:10:33;;;;;;;;;;;6.60;99.90;;;;;;4992815;28;19913;-88
2023/11/24 09:12:59;;;;;;;;;;;6.60;99.90;;;;;;4992280;28;19917;-89
2023/11/24 09:15:27;;;;;;;;;;;6.70;99.90;;;;;;4989766;28;19916;-90
2023/11/24 09:17:53;;;;;;;;;;;6.70;99.90;;;;;;5008658;28;20359;-89
2023/11/24 09:20:19;;;;;;;;;;;6.70;99.90;;;;;;4992146;28;19917;-90
2023/11/24 09:22:45;;;;;;;;;;;6.60;99.90;;;;;;4988699;28;19909;-89
2023/11/24 09:25:11;;;;;;;;;;;6.70;99.90;;;;;;4990075;28;19909;-91
2023/11/24 09:27:38;;;;;;;;;;;6.70;99.90;;;;;;5010190;28;19910;-92
2023/11/24 09:30:05;;;;;;;;;;;6.80;99.90;;;;;;5007071;28;19909;-90
2023/11/24 09:32:34;;;;;;;;;;;6.70;99.90;;;;;;4978594;28;20543;-91
2023/11/24 09:35:04;;;;;;;;;;;6.90;99.90;;;;;;4996714;28;20496;-92
2023/11/24 09:37:33;;;;;;;;;;;6.80;99.90;;;;;;5010112;28;19906;-90
2023/11/24 09:40:00;;;;;;;;;;;6.80;99.90;;;;;;5011550;28;20693;-90
2023/11/24 09:42:30;;;;;;;;;;;7.00;99.90;;;;;;5011939;28;19909;-89
2023/11/24 09:45:00;;;;;;;;;;;6.90;99.90;;;;;;5010715;28;19909;-91
2023/11/24 09:47:28;;;;;;;;;;;6.90;99.90;;;;;;5012182;28;20001;-88
2023/11/24 09:49:54;;;;;;;;;;;6.90;99.90;;;;;;4991077;28;19964;-89
2023/11/24 09:52:22;;;;;;;;;;;6.90;99.90;;;;;;5004904;28;20020;-91
2023/11/24 09:54:48;;;;;;;;;;;6.90;99.90;;;;;;4979747;28;19987;-89
2023/11/24 09:57:13;;;;;;;;;;;6.90;99.90;;;;;;4993474;28;20342;-86
2023/11/24 09:59:39;;;;;;;;;;;6.90;99.90;;;;;;4995108;28;19909;-89
2023/11/24 10:02:07;;;;;;;;;;;6.80;99.90;;;;;;5011022;28;19924;-89
2023/11/24 10:04:32;;;;;;;;;;;6.80;99.90;;;;;;4995178;28;20422;-88
2023/11/24 10:06:58;;;;;;;;;;;6.80;99.90;;;;;;5005261;28;20004;-89
2023/11/24 10:09:28;;;;;;;;;;;6.70;99.90;;;;;;4992501;28;19916;-91
2023/11/24 10:11:55;;;;;;;;;;;6.70;99.90;;;;;;4996565;28;20004;-93
2023/11/24 10:14:21;;;;;;;;;;;6.70;99.90;;;;;;5011029;28;19931;-91
2023/11/24 10:16:49;;;;;;;;;;;6.80;99.90;;;;;;4994337;28;20325;-89
2023/11/24 10:19:14;;;;;;;;;;;6.60;99.90;;;;;;4996642;28;20274;-89
2023/11/24 10:21:46;;;;;;;;;;;6.70;99.90;;;;;;5006988;28;19914;-90
2023/11/24 10:24:12;;;;;;;;;;;6.70;99.90;;;;;;4991154;28;20144;-90
2023/11/24 10:26:42;;;;;;;;;;;6.50;99.90;;;;;;5015205;28;19909;-91
2023/11/24 10:29:09;;;;;;;;;;;6.50;99.90;;;;;;4993425;28;20083;-91
2023/11/24 10:31:38;;;;;;;;;;;6.70;99.90;;;;;;4993580;28;19909;-91
2023/11/24 10:34:05;;;;;;;;;;;6.70;99.90;;;;;;5010749;28;19910;-88
2023/11/24 10:36:30;;;;;;;;;;;6.70;99.90;;;;;;5011696;28;19921;-90
2023/11/24 10:39:06;;;;;;;;;;;6.80;99.90;;;;;;4994106;28;19910;-89
2023/11/24 10:41:38;;;;;;;;;;;6.80;99.90;;;;;;5011087;28;19913;-87
2023/11/24 10:44:06;;;;;;;;;;;6.70;99.90;;;;;;4996105;28;20296;-87
2023/11/24 10:46:34;;;;;;;;;;;6.80;99.90;;;;;;4975447;28;19917;-88
2023/11/24 10:49:12;;;;;;;;;;;6.80;99.90;;;;;;5006364;28;20292;-89
2023/11/24 10:51:59;;;;;;;;;;;6.80;99.90;;;;;;5006989;28;19936;-90
2023/11/24 10:54:36;;;;;;;;;;;6.90;99.90;;;;;;5013343;28;19913;-88
2023/11/24 10:57:05;;;;;;;;;;;6.90;99.90;;;;;;4975817;28;19918;-91
2023/11/24 10:59:34;;;;;;;;;;;7.00;99.90;;;;;;5008415;28;19916;-90
2023/11/24 11:02:08;;;;;;;;;;;7.10;99.90;;;;;;4990192;28;19916;-91
2023/11/24 11:04:35;;;;;;;;;;;7.10;99.90;;;;;;4992044;28;19913;-89
2023/11/24 11:07:07;;;;;;;;;;;7.10;99.90;;;;;;5011165;28;20448;-89
2023/11/24 11:09:42;;;;;;;;;;;7.20;99.90;;;;;;5009211;28;19918;-91
2023/11/24 11:12:19;;;;;;;;;;;7.30;99.90;;;;;;4993640;28;19916;-89
2023/11/24 11:14:46;;;;;;;;;;;7.50;99.90;;;;;;5007089;28;19917;-88
2023/11/24 11:17:17;;;;;;;;;;;7.50;99.90;;;;;;4992947;28;19919;-89
2023/11/24 11:20:22;;;;;;;;;;;7.50;99.90;;;;;;4993892;28;20344;-87
2023/11/24 11:22:57;;;;;;;;;;;7.50;99.90;;;;;;4991629;28;19914;-86
2023/11/24 11:25:25;;;;;;;;;;;7.50;99.90;;;;;;5007181;28;19964;-88
2023/11/24 11:27:54;;;;;;;;;;;7.50;99.90;;;;;;5007556;28;20114;-89
2023/11/24 11:30:26;;;;;;;;;;;7.50;99.90;;;;;;5008631;28;19979;-89
2023/11/24 11:33:02;;;;;;;;;;;7.60;99.90;;;;;;4990958;28;19924;-90
2023/11/24 11:35:33;;;;;;;;;;;7.60;99.90;;;;;;5012749;28;20063;-87
2023/11/24 11:37:59;;;;;;;;;;;7.60;99.90;;;;;;5002631;28;19909;-90
2023/11/24 11:40:27;;;;;;;;;;;7.60;99.90;;;;;;5005652;28;20423;-90
2023/11/24 11:42:58;;;;;;;;;;;7.60;99.90;;;;;;4993641;28;20047;-88
2023/11/24 11:45:32;;;;;;;;;;;7.60;99.90;;;;;;4990266;28;20360;-88
2023/11/24 11:48:00;;;;;;;;;;;7.60;99.90;;;;;;5008782;28;19913;-89
2023/11/24 11:50:25;;;;;;;;;;;7.70;99.90;;;;;;4994505;28;19916;-88
2023/11/24 11:52:54;;;;;;;;;;;7.70;99.90;;;;;;4989690;28;19913;-88
2023/11/24 11:55:20;;;;;;;;;;;7.70;99.90;;;;;;4989147;28;19913;-89
2023/11/24 11:57:55;;;;;;;;;;;7.70;99.90;;;;;;5004852;28;19910;-90
2023/11/24 12:00:25;;;;;;;;;;;7.60;99.90;;;;;;4990852;28;19917;-89
2023/11/24 12:02:53;;;;;;;;;;;7.50;99.90;;;;;;4992322;28;19953;-89
2023/11/24 12:05:21;;;;;;;;;;;7.40;99.90;;;;;;4990891;28;21075;-89
2023/11/24 12:07:48;;;;;;;;;;;7.40;99.90;;;;;;4989946;28;20296;-90
2023/11/24 12:10:16;;;;;;;;;;;7.40;99.90;;;;;;4992598;28;19910;-89
2023/11/24 12:12:43;;;;;;;;;;;7.60;99.90;;;;;;4988708;28;19910;-88
2023/11/24 12:15:09;;;;;;;;;;;7.50;99.90;;;;;;5004138;28;19913;-88
2023/11/24 12:17:35;;;;;;;;;;;7.50;99.90;;;;;;4989151;28;20373;-88
2023/11/24 12:20:03;;;;;;;;;;;7.40;99.90;;;;;;4987917;28;19964;-86
2023/11/24 12:22:30;;;;;;;;;;;7.20;99.90;;;;;;4990943;28;19917;-87
2023/11/24 12:24:56;;;;;;;;;;;6.90;99.90;;;;;;4990741;28;20244;-89
2023/11/24 12:27:21;;;;;;;;;;;6.70;99.90;;;;;;4988809;28;20430;-88
2023/11/24 12:29:50;;;;;;;;;;;6.70;99.90;;;;;;4990201;28;20285;-90
2023/11/24 12:32:16;;;;;;;;;;;6.50;99.90;;;;;;5013395;28;19972;-89
2023/11/24 12:34:45;;;;;;;;;;;6.60;99.90;;;;;;4994414;28;19912;-89
2023/11/24 12:37:12;;;;;;;;;;;6.40;99.90;;;;;;5000423;28;19909;-89
2023/11/24 12:39:40;;;;;;;;;;;6.40;99.90;;;;;;4994395;28;19924;-90
2023/11/24 12:42:10;;;;;;;;;;;6.40;99.90;;;;;;4989570;28;19953;-91
2023/11/24 12:44:39;;;;;;;;;;;6.40;99.90;;;;;;4992829;28;19964;-92
2023/11/24 12:47:15;;;;;;;;;;;6.40;99.90;;;;;;5004241;28;19952;-88
2023/11/24 12:50:06;;;;;;;;;;;6.30;99.90;;;;;;5000937;28;20055;-91
2023/11/24 12:52:32;;;;;;;;;;;6.30;99.90;;;;;;4989321;28;20542;-92
2023/11/24 12:54:58;;;;;;;;;;;6.30;99.90;;;;;;4977025;28;19921;-87
2023/11/24 12:57:27;;;;;;;;;;;6.40;99.90;;;;;;4985961;28;19985;-91
2023/11/24 12:59:53;;;;;;;;;;;6.50;99.90;;;;;;4992534;28;20017;-91
2023/11/24 13:02:27;;;;;;;;;;;6.80;99.90;;;;;;4977365;28;20396;-91
2023/11/24 13:04:52;;;;;;;;;;;6.80;99.90;;;;;;5007250;28;19917;-92
2023/11/24 13:07:18;;;;;;;;;;;6.90;99.90;;;;;;5006050;28;20266;-90
2023/11/24 13:09:44;;;;;;;;;;;6.90;99.90;;;;;;5009759;28;19916;-89
2023/11/24 13:12:10;;;;;;;;;;;6.80;99.90;;;;;;4985928;28;19944;-89
2023/11/24 13:14:35;;;;;;;;;;;6.80;99.90;;;;;;4992883;28;20420;-89
2023/11/24 13:17:03;;;;;;;;;;;6.80;99.90;;;;;;5005851;28;19920;-86
2023/11/24 13:19:29;;;;;;;;;;;6.80;99.90;;;;;;5008769;28;19913;-89
2023/11/24 13:21:58;;;;;;;;;;;6.80;99.90;;;;;;4985240;28;19917;-88
2023/11/24 13:24:28;;;;;;;;;;;6.60;99.90;;;;;;5004604;28;19910;-90
2023/11/24 13:26:54;;;;;;;;;;;6.70;99.90;;;;;;5005344;28;20059;-89
2023/11/24 13:29:19;;;;;;;;;;;6.70;99.90;;;;;;5006608;28;19921;-91
2023/11/24 13:31:45;;;;;;;;;;;6.70;99.90;;;;;;5004947;28;19971;-90
2023/11/24 13:34:12;;;;;;;;;;;6.80;99.90;;;;;;4988847;28;20020;-91
2023/11/24 13:36:38;;;;;;;;;;;6.70;99.90;;;;;;5002711;28;20518;-87
2023/11/24 13:39:05;;;;;;;;;;;6.80;99.90;;;;;;4989745;28;19936;-89
2023/11/24 13:41:36;;;;;;;;;;;6.70;99.90;;;;;;5008339;28;20012;-88
2023/11/24 13:44:01;;;;;;;;;;;6.60;99.90;;;;;;4989704;28;20508;-88
2023/11/24 13:46:27;;;;;;;;;;;6.60;99.90;;;;;;5008995;28;19913;-90
2023/11/24 13:48:53;;;;;;;;;;;6.60;99.90;;;;;;5004458;28;20455;-89
2023/11/24 13:51:18;;;;;;;;;;;6.60;99.90;;;;;;4988684;28;19960;-88
2023/11/24 13:53:45;;;;;;;;;;;6.60;99.90;;;;;;5000037;28;19920;-88
2023/11/24 13:56:10;;;;;;;;;;;6.70;99.90;;;;;;5004588;28;20008;-91
2023/11/24 13:58:43;;;;;;;;;;;6.50;99.90;;;;;;4989253;28;20371;-91
2023/11/24 14:01:09;;;;;;;;;;;6.60;99.90;;;;;;4993327;28;19917;-89
2023/11/24 14:03:35;;;;;;;;;;;6.60;99.90;;;;;;4997191;28;19913;-88
2023/11/24 14:06:03;;;;;;;;;;;6.60;99.90;;;;;;4992711;28;19909;-90
2023/11/24 14:08:28;;;;;;;;;;;6.60;99.90;;;;;;5008913;28;19909;-86
2023/11/24 14:10:54;;;;;;;;;;;6.50;99.90;;;;;;4988988;28;19914;-87
2023/11/24 14:13:19;;;;;;;;;;;6.40;99.90;;;;;;4997702;28;19916;-91
2023/11/24 14:15:45;;;;;;;;;;;6.40;99.90;;;;;;5011016;28;19910;-89
2023/11/24 14:18:13;;;;;;;;;;;6.40;99.90;;;;;;5010855;28;19917;-89
2023/11/24 14:20:46;;;;;;;;;;;6.20;99.90;;;;;;5010288;28;19909;-88
2023/11/24 14:23:13;;;;;;;;;;;6.20;99.90;;;;;;4991267;28;19925;-89
2023/11/24 14:25:41;;;;;;;;;;;6.10;99.90;;;;;;5009689;28;20304;-89
2023/11/24 14:28:07;;;;;;;;;;;6.20;99.90;;;;;;4992454;28;19937;-88
2023/11/24 14:30:34;;;;;;;;;;;6.20;99.90;;;;;;4993492;28;20300;-89